Main page
METAR-TAF:

METAR-TAF

Airports :

Kaunas Airport

Kaunas, Lithuania

latitude: 54-54N, longitude: 023-55-12E, elevation: 77 m

Current weather observation

The report was made 34 minutes ago, at 23:50 UTC
Wind 4 kt from the South/Southeast
Temperature -7°C
Humidity 93%
Pressure 1014 hPa
Visibility: 4400 m
mist

METAR: EYKA 222350Z AUTO 16004KT 4400 BR NCD M07/M08 Q1014

Time: 02:24 (00:24 UTC)

Forecast

The report was made 1 hour and 22 minutes ago, at 23:02 UTC
Forecast valid from 23 at 00 UTC to 23 at 24 UTC
Wind 5 kt from variable directions
Visibility: 4000 m
Overcast at a height of 800 ft
mist
Temporary
from 23 at 00 UTC to 23 at 07 UTC
Visibility: 0600 m
at a height of 200 ft
freezing fog
Becoming
from 23 at 07 UTC to 23 at 08 UTC
Visibility: 7000 m
Scattered clouds at a height of 1000 ft
Broken clouds at a height of 1500 ft

TAF: EYKA 222302Z 2300/2324 VRB05KT 4000 BR OVC008 TEMPO 2300/2307 0600 FZFG VV002 BECMG 2307/2308 7000 SCT010 BKN015

Weather observations and forecasts of more than 4000 airports (METAR and TAF reports).

The available stations are represented by yellow and red dots on the map.

Hover mouse over dot to see the name of the station.

Then click to see weather observations and forecasts.

To change the map : click on the green buttons with a black cross to zoom in, on the green button with a dash to zoom out, or on the green arrows for adjacent maps.


METAR-TAF: